createdAt,value
2023-03-25T00:01:32.936Z,10.95
2023-03-25T00:06:56.964Z,10.87
2023-03-25T00:12:19.583Z,10.88
2023-03-25T00:17:40.669Z,10.84
2023-03-25T00:23:01.385Z,10.66
2023-03-25T00:28:22.231Z,10.68
2023-03-25T00:33:42.954Z,10.73
2023-03-25T00:39:08.441Z,10.64
2023-03-25T00:44:30.062Z,10.59
2023-03-25T00:49:51.781Z,10.57
2023-03-25T00:55:12.670Z,10.61
2023-03-25T01:00:33.372Z,10.53
2023-03-25T01:05:56.605Z,10.47
2023-03-25T01:11:23.670Z,10.45
2023-03-25T01:16:45.542Z,10.48
2023-03-25T01:22:06.451Z,10.56
2023-03-25T01:27:27.097Z,10.52
2023-03-25T01:32:48.274Z,10.60
2023-03-25T01:38:09.319Z,10.50
2023-03-25T01:43:31.811Z,10.46
2023-03-25T01:48:53.937Z,10.47
2023-03-25T01:54:18.295Z,10.54
2023-03-25T01:59:40.010Z,10.50
2023-03-25T02:05:10.873Z,10.48
2023-03-25T02:10:33.018Z,10.29
2023-03-25T02:16:29.303Z,10.09
2023-03-25T02:22:11.776Z,10.02
2023-03-25T02:27:47.211Z,10.00
2023-03-25T02:33:33.064Z,9.99
2023-03-25T02:39:10.473Z,10.03
2023-03-25T02:44:40.487Z,9.90
2023-03-25T02:50:14.005Z,9.87
2023-03-25T02:55:36.007Z,9.74
2023-03-25T03:01:00.538Z,9.68
2023-03-25T03:06:22.964Z,9.71
2023-03-25T03:11:59.626Z,9.66
2023-03-25T03:17:44.065Z,9.68
2023-03-25T03:23:24.294Z,9.62
2023-03-25T03:28:54.373Z,9.53
2023-03-25T03:34:50.054Z,9.46
2023-03-25T03:40:16.582Z,9.43
2023-03-25T03:45:43.196Z,9.46
2023-03-25T03:51:14.270Z,9.55
2023-03-25T03:56:41.390Z,9.56
2023-03-25T04:02:08.440Z,9.51
2023-03-25T04:07:54.811Z,9.54
2023-03-25T04:13:17.480Z,9.57
2023-03-25T04:18:39.542Z,9.51
2023-03-25T04:24:01.748Z,9.48
2023-03-25T04:29:25.647Z,9.49
2023-03-25T04:34:47.059Z,9.54
2023-03-25T04:40:09.375Z,9.42
2023-03-25T04:45:30.736Z,9.26
2023-03-25T04:50:51.897Z,9.22
2023-03-25T04:56:16.919Z,9.21
2023-03-25T05:01:42.273Z,9.30
2023-03-25T05:07:03.751Z,9.34
2023-03-25T05:12:24.401Z,9.18
2023-03-25T05:17:45.657Z,9.09
2023-03-25T05:23:12.239Z,8.99
2023-03-25T05:28:33.845Z,8.95
2023-03-25T05:33:55.051Z,9.00
2023-03-25T05:39:16.074Z,9.37
2023-03-25T05:44:38.757Z,9.26
2023-03-25T05:50:00.388Z,9.17
2023-03-25T05:55:23.438Z,9.18
2023-03-25T06:00:44.428Z,9.25
2023-03-25T06:06:05.669Z,9.12
2023-03-25T06:11:26.388Z,9.11
2023-03-25T06:16:50.031Z,9.07
2023-03-25T06:22:11.923Z,9.12
2023-03-25T06:27:34.777Z,9.22
2023-03-25T06:32:55.902Z,9.30
2023-03-25T06:38:16.669Z,9.35
2023-03-25T06:43:55.234Z,9.25
2023-03-25T06:49:16.156Z,9.39
2023-03-25T06:54:36.998Z,9.79
2023-03-25T06:59:57.543Z,10.02
2023-03-25T07:05:18.720Z,10.03
2023-03-25T07:10:39.279Z,9.98
2023-03-25T07:16:00.850Z,9.94
2023-03-25T07:21:22.039Z,9.93
2023-03-25T07:26:42.932Z,9.77
2023-03-25T07:32:06.715Z,9.66
2023-03-25T07:37:27.654Z,9.62
2023-03-25T07:42:48.492Z,9.65
2023-03-25T07:48:17.054Z,9.58
2023-03-25T07:53:39.216Z,9.46
2023-03-25T07:58:59.850Z,9.55
2023-03-25T08:04:21.144Z,9.53
2023-03-25T08:09:42.502Z,9.60
2023-03-25T08:15:03.920Z,9.64
2023-03-25T08:20:24.481Z,9.64
2023-03-25T08:25:49.348Z,9.64
2023-03-25T08:31:11.994Z,9.63
2023-03-25T08:36:32.933Z,9.68
2023-03-25T08:41:53.658Z,9.99
2023-03-25T08:47:14.333Z,10.26
2023-03-25T08:52:35.184Z,10.28
2023-03-25T08:57:55.920Z,10.09
2023-03-25T09:03:16.599Z,9.85
2023-03-25T09:08:37.373Z,9.39
2023-03-25T09:13:58.140Z,9.20
2023-03-25T09:19:18.735Z,9.31
2023-03-25T09:24:39.594Z,9.44
2023-03-25T09:30:00.195Z,9.54
2023-03-25T09:35:20.753Z,9.74
2023-03-25T09:40:45.038Z,10.02
2023-03-25T09:46:06.636Z,10.07
2023-03-25T09:51:35.950Z,10.01
2023-03-25T09:57:01.124Z,10.09
2023-03-25T10:02:34.700Z,10.26
2023-03-25T10:08:17.662Z,10.40
2023-03-25T10:14:19.418Z,10.53
2023-03-25T10:19:54.428Z,10.77
2023-03-25T10:25:20.930Z,10.68
2023-03-25T10:30:46.367Z,10.52
2023-03-25T10:36:18.099Z,10.41
2023-03-25T10:41:43.235Z,10.09
2023-03-25T10:47:14.276Z,10.05
2023-03-25T10:52:35.577Z,10.08
2023-03-25T10:57:57.211Z,10.10
2023-03-25T11:03:22.582Z,10.15
2023-03-25T11:09:04.616Z,10.10
2023-03-25T11:14:28.025Z,10.61
2023-03-25T11:20:02.246Z,10.63
2023-03-25T11:25:31.148Z,10.80
2023-03-25T11:31:10.420Z,11.08
2023-03-25T11:36:35.340Z,11.21
2023-03-25T11:41:57.326Z,11.14
2023-03-25T11:47:27.151Z,10.90
2023-03-25T11:52:50.301Z,10.71
2023-03-25T11:58:36.127Z,10.93
2023-03-25T12:04:26.311Z,11.23
2023-03-25T12:09:55.787Z,11.22
2023-03-25T12:15:39.418Z,11.04
2023-03-25T12:21:31.877Z,10.98
2023-03-25T12:26:52.615Z,11.02
2023-03-25T12:32:36.664Z,11.39
2023-03-25T12:38:17.025Z,11.42
2023-03-25T12:43:58.593Z,11.33
2023-03-25T12:49:42.857Z,11.29
2023-03-25T12:55:23.794Z,11.34
2023-03-25T13:01:12.751Z,11.65
2023-03-25T13:06:46.263Z,11.93
2023-03-25T13:12:13.293Z,12.08
2023-03-25T13:17:47.978Z,12.24
2023-03-25T13:23:14.058Z,12.26
2023-03-25T13:28:43.875Z,11.97
2023-03-25T13:34:24.725Z,11.85
2023-03-25T13:40:11.770Z,11.80
2023-03-25T13:46:02.815Z,11.96
2023-03-25T13:51:23.876Z,12.12
2023-03-25T13:56:53.705Z,12.18
2023-03-25T14:02:33.327Z,12.19
2023-03-25T14:08:23.980Z,12.14
2023-03-25T14:14:01.672Z,12.13
2023-03-25T14:19:32.288Z,12.16
2023-03-25T14:24:53.968Z,12.25
2023-03-25T14:30:23.932Z,12.13
2023-03-25T14:35:47.640Z,11.89
2023-03-25T14:41:09.195Z,11.77
2023-03-25T14:46:35.739Z,11.32
2023-03-25T14:51:58.928Z,10.58
2023-03-25T14:57:26.485Z,9.84
2023-03-25T15:02:53.471Z,9.42
2023-03-25T15:08:17.684Z,9.03
2023-03-25T15:13:52.883Z,8.81
2023-03-25T15:19:19.002Z,8.76
2023-03-25T15:24:41.537Z,8.74
2023-03-25T15:30:26.926Z,8.80
2023-03-25T15:36:19.902Z,8.80
2023-03-25T15:41:58.974Z,8.89
2023-03-25T15:47:46.138Z,8.94
2023-03-25T15:53:35.918Z,8.93
2023-03-25T15:59:08.100Z,8.92
2023-03-25T16:04:34.815Z,8.95
2023-03-25T16:09:55.748Z,8.96
2023-03-25T16:15:24.488Z,8.90
2023-03-25T16:20:46.308Z,8.80
2023-03-25T16:26:07.145Z,8.80
2023-03-25T16:31:41.176Z,8.93
2023-03-25T16:37:02.823Z,8.95
2023-03-25T16:42:32.837Z,8.92
2023-03-25T16:47:54.335Z,8.97
2023-03-25T16:53:17.842Z,8.91
2023-03-25T16:58:57.814Z,8.86
2023-03-25T17:04:22.347Z,8.96
2023-03-25T17:09:44.901Z,8.90
2023-03-25T17:15:09.355Z,8.93
2023-03-25T17:20:45.764Z,8.97
2023-03-25T17:26:22.417Z,8.95
2023-03-25T17:31:43.305Z,8.92
2023-03-25T17:37:04.083Z,8.84
2023-03-25T17:42:26.381Z,8.78
2023-03-25T17:47:47.404Z,8.65
2023-03-25T17:53:08.220Z,8.65
2023-03-25T17:58:29.682Z,8.60
2023-03-25T18:03:50.823Z,8.57
2023-03-25T18:09:23.641Z,8.49
2023-03-25T18:14:44.984Z,8.39
2023-03-25T18:20:28.614Z,8.37
2023-03-25T18:25:49.704Z,8.21
2023-03-25T18:31:18.928Z,8.24
2023-03-25T18:36:42.087Z,8.20
2023-03-25T18:42:02.837Z,8.11
2023-03-25T18:47:24.293Z,8.12
2023-03-25T18:52:45.724Z,8.07
2023-03-25T18:58:07.906Z,8.05
2023-03-25T19:03:38.567Z,8.00
2023-03-25T19:09:00.593Z,8.08
2023-03-25T19:14:21.647Z,8.03
2023-03-25T19:19:42.713Z,7.93
2023-03-25T19:25:03.455Z,7.85
2023-03-25T19:30:24.810Z,7.83
2023-03-25T19:35:54.465Z,7.76
2023-03-25T19:41:16.701Z,7.91
2023-03-25T19:46:38.002Z,7.99
2023-03-25T19:51:59.116Z,8.00
2023-03-25T19:57:20.283Z,7.97
2023-03-25T20:02:47.710Z,7.95
2023-03-25T20:08:09.611Z,7.97
2023-03-25T20:13:30.422Z,7.95
2023-03-25T20:18:51.514Z,7.92
2023-03-25T20:24:12.594Z,7.78
2023-03-25T20:29:33.282Z,7.90
2023-03-25T20:34:53.998Z,7.83
2023-03-25T20:40:17.201Z,7.84
2023-03-25T20:45:37.936Z,7.91
2023-03-25T20:51:01.035Z,7.80
2023-03-25T20:56:21.890Z,7.60
2023-03-25T21:01:42.839Z,7.68
2023-03-25T21:07:04.208Z,7.73
2023-03-25T21:12:40.728Z,7.81
2023-03-25T21:18:04.154Z,7.83
2023-03-25T21:23:28.409Z,7.76
2023-03-25T21:28:49.571Z,7.69
2023-03-25T21:34:11.185Z,7.59
2023-03-25T21:39:32.592Z,7.59
2023-03-25T21:44:53.671Z,7.63
2023-03-25T21:50:14.879Z,7.62
2023-03-25T21:55:36.552Z,7.54
2023-03-25T22:01:01.790Z,7.52
2023-03-25T22:06:26.280Z,7.50
2023-03-25T22:11:47.214Z,7.58
2023-03-25T22:17:08.116Z,7.58
2023-03-25T22:22:30.063Z,7.58
2023-03-25T22:27:50.952Z,7.59
2023-03-25T22:33:11.581Z,7.56
2023-03-25T22:38:33.663Z,7.59
2023-03-25T22:43:55.912Z,7.52
2023-03-25T22:49:17.708Z,7.47
2023-03-25T22:54:38.375Z,7.46
2023-03-25T22:59:59.045Z,7.46
2023-03-25T23:05:19.907Z,7.42
2023-03-25T23:10:44.519Z,7.42
2023-03-25T23:16:14.259Z,7.43
2023-03-25T23:21:34.903Z,7.44
2023-03-25T23:26:56.114Z,7.45
2023-03-25T23:32:16.905Z,7.52
2023-03-25T23:37:37.747Z,7.54
2023-03-25T23:42:58.300Z,7.55
2023-03-25T23:48:19.005Z,7.60
2023-03-25T23:53:43.647Z,7.61
2023-03-25T23:59:06.469Z,7.61
